空港情報

日本の空港の気象及び、管制情報です。
気象情報はより詳細な情報が取得できる「AVIATION WEATER CENTER」 から取得しているため、VATSIMの気象情報と若干のタイムラグが生じることがあります。

VRCのフィールド設定用空港一覧はこちらをご覧ください。

RJCG Sapporo Control

RJCW / Wakkanai

NO RADAR

RADIO

08/26 2200x45

民間 civil

過去5時間に発表されたMETARがありません。

RJER / Rishiri

NO RADAR

REMOTE

25/07 1800x45

民間 civil

過去5時間に発表されたMETARがありません。

RJEB / Monbetsu

NO RADAR

REMOTE

32/14 2000x45

民間 civil

過去5時間に発表されたMETARがありません。

RJCM / Memanbetsu
VMC

NO RADAR

TOWER

36/18 2500x45

民間 civil

9999

000@1KT

30.15

RJCM 221100Z VRB01KT 9999 FEW025 BKN/// 13/10 Q1021

RJEC / Asahikawa
VMC

NO RADAR

TOWER

34/16 2500x60

民間 civil

9999

150@3KT

30.15

RJEC 221100Z 15003KT 9999 FEW020 BKN/// 10/08 Q1021

RJCN / Nakashibetsu

NO RADAR

RADIO

08/26 2000x45

民間 civil

過去5時間に発表されたMETARがありません。

RJCK / Kushiro
VMC

NO RADAR

TOWER

17/35 2500x45

民間 civil

9999

020@5KT

30.15

RJCK 221100Z 02005KT 360V060 9999 FEW030 BKN/// 15/13 Q1021

RJCO / Sapporo
VMC

RJCO_APP

TOWER

14/32 1500x30

共用 dual

9999

050@2KT

30.15

RJCO 221100Z 05002KT 9999 FEW040 BKN220 13/09 Q1021

RJCJ / Chitose

RJCC_APP

TOWER

36R/18L 3000x60
36L/18R 2700x45

自衛隊 military

過去5時間に発表されたMETARがありません。

RJCC / NewChitose
VMC

RJCC_APP

TOWER

01L/19R 3000x60
01R/19L 3000x60

民間 civil

9999

350@4KT

30.12

RJCC 221330Z 35004KT 9999 FEW020 BKN/// 12/11 Q1020

RJCB / Obihiro
VMC

NO RADAR

TOWER

35/17 2500x45

民間 civil

9999

000@1KT

30.12

RJCB 221100Z VRB01KT 9999 FEW040 BKN/// 13/12 Q1020

RJEO / Okushiri

NO RADAR

REMOTE

12/30 1500x45

民間 civil

過去5時間に発表されたMETARがありません。

RJCH / Hakodate
VMC

RJCH_APP

TOWER

12/30 3000x45

民間 civil

9999

060@6KT

30.12

RJCH 221100Z 06006KT 9999 FEW040 SCT/// 16/13 Q1020

RJSA / Aomori
VMC

NO RADAR

TOWER

24/06 3000x60

民間 civil

9999

200@2KT

30.09

RJSA 221200Z 20002KT 9999 -RA FEW020 BKN060 BKN100 14/13 Q1019

RJSO / Ominato

RJSM_APP

TOWER

04/22 600x45

自衛隊 military

過去5時間に発表されたMETARがありません。

RJSM / Misawa
VMC

RJSM_APP

TOWER

10/28 3050x45

共用 dual

9999

200@4KT

30.09

RJSM 221300Z 20004KT 9999 -RA FEW020 BKN040 OVC070 18/14 Q1019

RJSH / Hachinohe

RJSM_APP

TOWER

25/07 2250x45

自衛隊 military

過去5時間に発表されたMETARがありません。

RJSK / Akita
VMC

NO RADAR

TOWER

10/28 2500x60

民間 civil

9999

110@5KT

30.03

RJSK 221200Z 11005KT 9999 -RA FEW001 BKN050 BKN070 16/15 Q1017

RJSI / Hanamaki
VMC

NO RADAR

RADIO

20/02 2500x45

民間 civil

9999

000@1KT

30.12

RJSI 221000Z VRB01KT 9999 -RA FEW005 SCT020 BKN040 16/15 Q1020

RJSR / Odate-Noshiro
VMC

NO RADAR

REMOTE

11/29 2000x45

民間 civil

9999

100@2KT

30.09

RJSR 221000Z 10002KT 9999 -RA FEW020 BKN110 17/15 Q1019

RJTG Tokyo Control

RJSY / Shonai
VMC

NO RADAR

RADIO

09/27 2000x45

民間 civil

9999

090@15KT

29.97

RJSY 221200Z 09015KT 9999 -RA FEW010 SCT060 BKN100 19/17 Q1015

RJSC / Yamagata
VMC

NO RADAR

RADIO

01/19 2000x45

民間 civil

9999

070@5KT

30.06

RJSC 221000Z 07005KT 030V090 9999 -RA FEW015 SCT080 BKN150 19/18 Q1018

RJST / Matsushima

RJSS_APP

TOWER

07/25 2071x46
15/33 1500x46

自衛隊 military

過去5時間に発表されたMETARがありません。

RJSS / Sendai
VMC

RJSS_APP

TOWER

27/09 3000x45
12/30 1200x45

民間 civil

8000

350@3KT

30.09

RJSS 221200Z 35003KT 320V030 8000 -RA FEW008 SCT015 BKN025 19/18 Q1019

RJSD / Sado
IMC

NO RADAR

REMOTE

10/28 890x25

民間 civil

4200

050@9KT

29.91

RJSD 221300Z AUTO 05009KT 020V080 4200 RA BR FEW005 SCT007 BKN010 20/20 Q1013

RJSN / Niigata
VMC

RJSN_APP

TOWER

10/28 2500x45
04/22 1314x45

民間 civil

9999

000@2KT

29.91

RJSN 221200Z VRB02KT 9999 -RA FEW050 SCT080 BKN110 22/20 Q1013

RJSF / Fukushima
VMC

NO RADAR

RADIO

01/19 2500x60

民間 civil

9999

000@4KT

30.09

RJSF 221100Z VRB04KT 9999 FEW010 BKN045 BKN050 19/17 Q1019

RJAH / Ibaraki/Hyakuri
IMC

RJAH_APP

TOWER

03L/21R 2700x45
03R/21L 2700x45

共用 dual

4000

050@14KT

29.97

RJAH 221300Z 05014KT 4000 -SHRA BR SCT004 BKN006 BKN012 21/20 Q1015

RJTT / Tokyo
VMC

RJTT_APP

TOWER

34LR/16RL 3000x60
04/22&05/23 2500x60

民間 civil

5000

350@8KT

29.94

RJTT 221342Z 35008KT 5000 -SHRA BR FEW003 SCT007 BKN012 21/21 Q1014 RMK 2ST003 3ST007 6CU012 A2997

RJAA / Narita
IMC

RJTT_APP

TOWER

34L/16R 4000x60
34R/16L 2500x60

民間 civil

2400

050@7KT

29.94

RJAA 221335Z 05007KT 360V080 2400 -SHRA BR FEW001 BKN002 22/21 Q1014 RMK 1ST001 7ST002 A2996

RJTL / Shimofusa
IMC

RJTT_APP

TOWER

19/01 2250x45

自衛隊 military

2300

040@7KT

29.94

RJTL 221327Z 04007KT 360V070 2300 R19/1800N -SHRA BR SCT005 BKN008 BKN015 21/20 Q1014 RMK 3ST005 6ST008 7CU015 A2996

RJTE / Tateyama
IMC

RJTT_APP

TOWER

09/27 300x45

自衛隊 military

4900

340@9KT

29.94

RJTE 221302Z 34009KT 310V010 4900 -SHRA BR FEW005 BKN008 BKN012 23/22 Q1014 RMK 2ST005 5ST008 7CU012 A2996

RJTO / Oshima

NO RADAR

RADIO

03/21 1800x45

民間 civil

過去5時間に発表されたMETARがありません。

RJTK / Kisarazu

NO RADAR

TOWER

02/20 1830x45

自衛隊 military

過去5時間に発表されたMETARがありません。

RJAN / Niijima

NO RADAR

REMOTE

11/29 800x25

自衛隊 military

過去5時間に発表されたMETARがありません。

RJAZ / Kozushima

NO RADAR

REMOTE

11/29 800x25

民間 civil

過去5時間に発表されたMETARがありません。

RJTH / Hachijojima

NO RADAR

RADIO

26/08 2000x45

民間 civil

過去5時間に発表されたMETARがありません。

RJTF / Chofu

NO RADAR

Flight Service

35/17 800x30

民間 civil

過去5時間に発表されたMETARがありません。

RJTQ / Miyake

NO RADAR

REMOTE

02/20 1200x30

民間 civil

過去5時間に発表されたMETARがありません。

RJTC / Tachikawa

NO RADAR

TOWER

01/19 900x45

自衛隊 military

過去5時間に発表されたMETARがありません。

RJTA / Atsugi

NO RADAR

TOWER

01/19 2438x45

自衛隊 military

過去5時間に発表されたMETARがありません。

RJTU / Utsunomiya

RJTY_APP

TOWER

01/19 1700x45

自衛隊 military

過去5時間に発表されたMETARがありません。

RJTJ / Iruma

RJTY_APP

TOWER

17/35 2000x45

自衛隊 military

過去5時間に発表されたMETARがありません。

RJTY / Yokota
VMC

RJTY_APP

TOWER

18/36 3353x60

自衛隊 military

9700

350@4KT

30.02

RJTY 221400Z AUTO 35004KT 6SM -DZ BR SCT005 20/20 A3002 RMK AO2 DZB00 SLP164 FZRANO $

RJAF / Matsumoto

NO RADAR

RADIO

18/36 2000x45

民間 civil

過去5時間に発表されたMETARがありません。

RJNS / Shizuoka
VMC

NO RADAR

RADIO

30/12 2500x60

民間 civil

5000

020@7KT

29.97

RJNS 221200Z 02007KT 340V090 5000 R30/0900VP2000U SHRA BR FEW003 SCT013 BKN020 21/21 Q1015

RJNY / Yaizu-Shizuhama
VMC

NO RADAR

TOWER

27/09 1500x45

自衛隊 military

6000

030@6KT

29.94

RJNY 221218Z 03006KT 360V070 6000 -SHRA FEW010 BKN030 BKN060 22/21 Q1014 RMK 1CU010 5CU030 7SC060 A2997

RJNH / Hamamatsu

RJNH_APP

TOWER

09/27 2550x60

自衛隊 military

過去5時間に発表されたMETARがありません。

RJGG / Chubu
VMC

RJGG_APP

TOWER

36/18 3500x60

民間 civil

9999

120@27KT

29.82

RJGG 221330Z 12027KT 9999 FEW015 SCT050 BKN080 24/21 Q1010 TEMPO 12030G40KT

RJNA / Nagoya

RJGG_APP

TOWER

34/16 2740x45

民間 civil

過去5時間に発表されたMETARがありません。

RJNG / Gifu
VMC

RJGG_APP

TOWER

28/10 2710x46

自衛隊 military

9999

000@1KT

29.85

RJNG 221241Z VRB01KT 9999 FEW015 SCT030 BKN050 22/22 Q1011 RMK 1CU015 3CU030 6SC050 A2986

RJOE / Akeno

RJOE_APP

TOWER

13/31 500x30
04/22 500x30

自衛隊 military

過去5時間に発表されたMETARがありません。

RJNK / Komatsu
VMC

RJNK_APP

TOWER

06/24 2700x45

共用 dual

9999

090@3KT

29.76

RJNK 221300Z 09003KT 060V130 9999 FEW020 SCT050 BKN080 21/19 Q1008

RJNW / Noto
VMC

NO RADAR

RADIO

25/07 2000x45

民間 civil

9999

060@7KT

29.91

RJNW 221000Z 06007KT 020V090 9999 -RA FEW000 BKN060 BKN080 18/17 Q1013

RJNT / Toyama
VMC

NO RADAR

TOWER

20/02 2000x45

民間 civil

9999

190@4KT

29.82

RJNT 221200Z 19004KT 130V230 9999 -SHRA FEW010 BKN060 20/19 Q1010

RJNF / Fukui

NO RADAR

REMOTE

18/36 1200x30

民間 civil

過去5時間に発表されたMETARがありません。

RJBD / Nanki-Shirahama
VMC

NO RADAR

RADIO

15/33 2000x45

民間 civil

9999

140@16KT

29.82

RJBD 221000Z 14016KT 120V190 9999 FEW015 SCT020 BKN/// 27/23 Q1010

RJOY / Yao
VMC

RJBB_APP

TOWER

27/09 1490x45
13/31 1200x30

民間 civil

9999

090@7KT

29.76

RJOY 221000Z 09007KT 9999 FEW008 BKN/// 25/22 Q1008

RJOO / Osaka
VMC

RJBB_APP

TOWER

32L/14R 3000x60
32R/14L 1830x45

民間 civil

9999

070@13KT

29.76

RJOO 221100Z 07013KT 9999 VCSH FEW009 SCT/// 25/22 Q1008 RMK 1ST009 A2977

RJOB / Okayama
VMC

RJBB_APP

TOWER

07/25 3000x45

民間 civil

8000

110@16G29KT

29.62

RJOB 221212Z 11016G29KT 8000 BCFG FEW000 SCT005 BKN010 25/24 Q1003 RMK 1ST000 3ST005 5CU010 A2963 FG NE-E AND SW

RJBB / Kansai
VMC

RJBB_APP

TOWER

06R/24L 3500x60
06L/24R 4000x60

民間 civil

9999

160@17G27KT

29.68

RJBB 221343Z 16017G27KT 9999 FEW025 SCT090 BKN/// 29/22 Q1005 RMK 1CU025 3AC090 A2969

RJBE / Kobe
VMC

RJBB_APP

TOWER

09/27 2500x60

民間 civil

9999

050@15KT

29.73

RJBE 221200Z 05015KT 9999 FEW015 SCT045 BKN080 24/21 Q1007

RJBT / Tajima

NO RADAR

REMOTE

01/19 1200x30

民間 civil

過去5時間に発表されたMETARがありません。

RJOR / Tottori
VMC

NO RADAR

RADIO

10/28 2000x45

民間 civil

8000

060@16KT

29.62

RJOR 221200Z 06016KT 8000 -SHRA FEW002 SCT040 BKN060 23/21 Q1003

RJNO / Oki

NO RADAR

REMOTE

07/25 2000x45

民間 civil

過去5時間に発表されたMETARがありません。

RJOH / Miho
VMC

RJOH_APP

TOWER

25/07 2500x45

共用 dual

9999

070@19KT

29.50

RJOH 221300Z 07019KT 9999 -SHRA FEW010 SCT030 BKN090 24/22 Q0999

RJOC / Izumo
VMC

RJOH_APP

RADIO

07/25 2000x45

共用 dual

9999

080@22KT

29.56

RJOC 221100Z 08022KT 9999 FEW010 SCT050 BKN080 23/20 Q1001

RJDG Fukuoka Control

RJOT / Takamatsu
VMC

RJBB_APP

TOWER

26/08 2500x60

民間 civil

9999

140@3KT

29.59

RJOT 221200Z 14003KT 070V220 9999 VCSH FEW015 SCT060 BKN180 25/23 Q1002

RJOK / Kochi
IMC

RJBB_APP

TOWER

32/14 2500x45

民間 civil

1000

160@26G38KT

29.68

RJOK 221137Z 16026G38KT 1000 R32/0350VP1800D +SHRA BR FEW008 SCT020 FEW020CB BKN030 27/24 Q1005 RMK 1ST008 4CU020 2CB020 5CU030 A2969 CB OHD MOV N RI++

RJOS / Tokushima
VMC

RJOS_APP

TOWER

29/11 2500x45

共用 dual

8000

170@35G50KT

29.62

RJOS 221300Z 17035G50KT 8000 -SHRA FEW008 BKN012 BKN030 27/25 Q1003

RJOA / Hiroshima
VMC

RJOA_APP

TOWER

10/28 3000x60

民間 civil

9999

110@9KT

29.56

RJOA 221300Z 11009KT 9999 FEW002 SCT030 BKN080 23/21 Q1001

RJBH / Hiroshimanishi

NO RADAR

Flight Service

04/22 1800x45

民間 civil

過去5時間に発表されたMETARがありません。

RJOI / Iwakuni
VMC

RJOI_APP

TOWER

02/20 2440x60

共用 dual

9999

170@27G33KT

29.42

RJOI 221355Z 17027G33KT 9999 FEW015 BKN030 OVC045 27/23 A2942 RMK PK WND 17033/54 SLP963 T02720228

RJOM / Matsuyama
VMC

RJOI_APP

TOWER

14/32 2500x45

民間 civil

9999

180@15G26KT

29.50

RJOM 221213Z 18015G26KT 140V220 9999 FEW020 SCT040 BKN060 29/23 Q0999 RMK 1CU020 3CU040 5SC060 A2953

RJOZ / Ozuki

RJFZ_APP

TOWER

35/17 1201x61
12/30 899x46

自衛隊 military

過去5時間に発表されたMETARがありません。

RJOF / Hofu
VMC

RJFZ_APP

TOWER

30/12 1180x60
01/19 1480x45

自衛隊 military

8000

120@33G54KT

29.29

RJOF 221345Z 12033G54KT 080V150 8000 FEW015 BKN030 BKN050 27/23 Q0992 RMK 1CU015 6CU030 7SC050 A2930

RJDC / Yamaguchi-Ube
VMC

RJFZ_APP

RADIO

07/25 2500x45

民間 civil

9999

110@23KT

29.26

RJDC 221200Z 11023KT 9999 FEW020 SCT030 BKN060 27/23 Q0991

RJFR / Kitakyushu
VMC

RJFZ_APP

TOWER

18/36 2500x60

民間 civil

9999

170@22G32KT

29.20

RJFR 221320Z 17022G32KT 9999 -SHRA FEW015 BKN045 BKN060 28/22 Q0989 RMK 1CU015 5CU045 7SC060 A2923

RJFZ / Tsuiki

RJFZ_APP

TOWER

25/07 2399x46

自衛隊 military

過去5時間に発表されたMETARがありません。

RJOW / Iwami
VMC

NO RADAR

REMOTE

11/29 2000x45

民間 civil

9999

040@7KT

29.44

RJOW 221000Z 04007KT 010V070 9999 -SHRA FEW001 SCT035 BKN100 23/23 Q0997

RJDT / Tsushima
IMC

NO RADAR

REMOTE

32/14 1900x45

民間 civil

0400

000@23G49KT

29.17

RJDT 221100Z VRB23G49KT 0400 +SHRA FEW003 SCT007 BKN015 21/19 Q0988

RJFF / Fukuoka
IMC

RJFF_APP

TOWER

16/34 2800x60

民間 civil

4800

170@34G54KT

29.17

RJFF 221343Z 17034G54KT 4800 -SHRA BR FEW010 SCT015 BKN020 24/22 Q0988 RMK 1ST010 3CU015 5CU020 A2919 P/RR

RJFS / Saga
IMC

RJFF_APP

RADIO

29/11 2000x45

民間 civil

3500

190@47G66KT

29.17

RJFS 221300Z 19047G66KT 3500 BR FEW010 SCT015 BKN025 25/22 Q0988

RJFA / Ashiya

RJFF_APP

TOWER

12/30 1640x46

自衛隊 military

過去5時間に発表されたMETARがありません。

RJDB / Iki

RJFF_APP

REMOTE

20/02 1200x30

民間 civil

過去5時間に発表されたMETARがありません。

RJFO / Oita
VMC

RJFO_APP

TOWER

01/19 3000x45

民間 civil

9999

150@28KT

29.32

RJFO 221300Z 15028KT 9999 FEW015 SCT040 BKN/// 27/25 Q0993

RJFU / Nagasaki
VMC

RJFU_APP

TOWER

32/14 3000x60

民間 civil

6000

180@37G54KT

29.17

RJFU 221200Z 18037G54KT 6000 -SHRA FEW010 BKN015 BKN020 26/23 Q0988

RJDU / Omura

RJFU_APP

TOWER

18/36 1200x30

自衛隊 military

過去5時間に発表されたMETARがありません。

RJFE / Fukue
IMC

NO RADAR

RADIO

03/21 2000x45

民間 civil

5000

220@8KT

28.97

RJFE 221000Z 22008KT 180V250 5000 -SHRA BR FEW003 SCT005 BKN007 26/26 Q0981

RJDO / Ojika

NO RADAR

REMOTE

03/21 800x30

民間 civil

過去5時間に発表されたMETARがありません。

RJDK / Kamigoto
IMC

NO RADAR

REMOTE

17/35 800x30

民間 civil

4200

320@22G33KT

29.32

RJDK 221300Z AUTO 32022G33KT 290V350 4200 BR OVC011 22/21 Q0993

RJDA / Amakusa

NO RADAR

Flight Service

31/13 1000x30

民間 civil

過去5時間に発表されたMETARがありません。

RJFT / Kumamoto
VMC

RJFT_APP

TOWER

07/25 3000x45

民間 civil

9999

200@16G29KT

29.38

RJFT 221200Z 20016G29KT 170V240 9999 FEW025 SCT035 BKN045 29/22 Q0995

RJFN / Nyutabaru

RJFM_APP

TOWER

28/10 2701x46

自衛隊 military

過去5時間に発表されたMETARがありません。

RJFM / Miyazaki
VMC

RJFM_APP

TOWER

27/09 2500x45

民間 civil

8000

220@12KT

29.56

RJFM 221200Z 22012KT 8000 -SHRA FEW010 SCT025 BKN035 26/23 Q1001

RJFK / Kagoshima
IMC

RJFK_APP

TOWER

34/16 3000x45

民間 civil

6000

220@15G25KT

29.65

RJFK 221241Z 22015G25KT 6000 -SHRA SCT006 BKN009 BKN012 23/22 Q1004 RMK 3ST006 6ST009 7CU012 A2965

RJFY / Kanoya

RJFY_APP

TOWER

26L/08R 2250x45
26R/08L 1200x40

自衛隊 military

過去5時間に発表されたMETARがありません。

RJFG / Tanegashima

NO RADAR

RADIO

31/13 2000x45

民間 civil

過去5時間に発表されたMETARがありません。

RJFC / Yakushima

NO RADAR

REMOTE

14/32 1500x45

民間 civil

過去5時間に発表されたMETARがありません。

RJBG Kobe Control

ROAH / Naha
VMC

ROAH_APP

TOWER

36/18 3000x45

共用 dual

9999

280@11KT

29.85

ROAH 221330Z 28011KT 9999 FEW015 BKN040 26/23 Q1011 RMK 2CU015 6SC040 A2988

RORA / Aguni

ROAH_APP

REMOTE

01/19 800x25

民間 civil

過去5時間に発表されたMETARがありません。

ROKJ / Kumejima

ROAH_APP

REMOTE

03/21 2000x45

民間 civil

過去5時間に発表されたMETARがありません。

RODN / Kadena
VMC

ROAH_APP

TOWER

05L/23R 3688x91
05R/23L 3688x61

自衛隊 military

9999

250@9KT

29.89

RODN 221356Z AUTO 25009KT 10SM FEW016 SCT034 BKN044 OVC100 25/23 A2989 RMK AO2 RAB1257E07 SLP127 P0000 T02520225

ROTM / Futenma
VMC

ROAH_APP

TOWER

06/24 2740x45

自衛隊 military

9999

270@7KT

29.90

ROTM 221356Z 27007KT 10SM FEW014 SCT029 BKN043 25/23 A2990 RMK AO2 SLP110 T02500233 $

RORS / Shimojishima
VMC

RORS_APP

TOWER

17/35 3000x60

民間 civil

9999

340@13KT

29.85

RORS 221000Z 34013KT 9999 -RA FEW024 BKN060 26/21 Q1011

ROMY / Miyako
VMC

RORS_APP

TOWER

04/22 2000x45

民間 civil

9999

350@5KT

29.88

ROMY 221100Z 35005KT 9999 -RA FEW022 SCT034 BKN060 26/21 Q1012

ROIG / New Ishigaki
VMC

RORS_APP

TOWER

22/04 2000x45

民間 civil

9999

350@6KT

29.91

ROIG 221100Z 35006KT 320V020 9999 -RA FEW025 BKN040 24/23 Q1013

RORT / Tarama

RORS_APP

REMOTE

36/18 1500x45

民間 civil

過去5時間に発表されたMETARがありません。

RJKA / Amami
VMC

NO RADAR

RADIO

03/21 2000x45

民間 civil

9999

230@16KT

29.73

RJKA 221000Z 23016KT 9999 FEW020 SCT025 27/24 Q1007

RJKI / Kikai
VMC

NO RADAR

REMOTE

07/25 1200x30

民間 civil

9999

240@12KT

29.79

RJKI 221300Z AUTO 24012KT 9999 FEW017 SCT039 BKN043 26/24 Q1009

RJKN / Tokunoshima

NO RADAR

REMOTE

19/01 2000x45

民間 civil

過去5時間に発表されたMETARがありません。

RJKB / Okierabu

NO RADAR

REMOTE

04/22 1350x45

民間 civil

過去5時間に発表されたMETARがありません。

RORY / Yoron
VMC

NO RADAR

REMOTE

32/14 1320x30

民間 civil

9999

250@11KT

29.82

RORY 221300Z AUTO 25011KT 9999 FEW025 BKN048 26/24 Q1010

RORK / Kitadaito
VMC

NO RADAR

REMOTE

03/21 1500x45

民間 civil

9999

230@9KT

29.88

RORK 221300Z AUTO 23009KT 9999 FEW011 SCT140 27/25 Q1012

ROMD / Minami-daito
VMC

NO RADAR

REMOTE

02/20 1500x45

民間 civil

9999

230@8KT

29.88

ROMD 221300Z AUTO 23008KT 9999 NCD 27/25 Q1012

ROYN / Yonaguni
VMC

NO RADAR

REMOTE

26/08 2000x45

民間 civil

9999

020@16KT

29.94

ROYN 221300Z AUTO 02016KT 9999 -RA FEW027 SCT045 BKN050 26/21 Q1014

RORH / Hateruma

NO RADAR

REMOTE

02/20 800x25

民間 civil

過去5時間に発表されたMETARがありません。

ROKR / Kerama

NO RADAR

REMOTE

02/20 800x25

民間 civil

過去5時間に発表されたMETARがありません。